createdAt,value
2023-02-03T00:00:20.732Z,102126.03
2023-02-03T00:02:49.561Z,102105.91
2023-02-03T00:05:18.371Z,102110.00
2023-02-03T00:07:47.074Z,102096.53
2023-02-03T00:10:21.288Z,102097.34
2023-02-03T00:12:50.983Z,102093.19
2023-02-03T00:15:20.375Z,102096.53
2023-02-03T00:17:48.986Z,102100.41
2023-02-03T00:20:17.721Z,102096.16
2023-02-03T00:22:46.564Z,102092.16
2023-02-03T00:25:16.582Z,102097.09
2023-02-03T00:27:45.640Z,102094.63
2023-02-03T00:30:15.142Z,102089.44
2023-02-03T00:32:43.724Z,102080.50
2023-02-03T00:35:12.297Z,102091.88
2023-02-03T00:37:40.910Z,102080.69
2023-02-03T00:40:10.563Z,102071.91
2023-02-03T00:42:40.538Z,102090.03
2023-02-03T00:45:10.096Z,102086.38
2023-02-03T00:47:38.721Z,102089.56
2023-02-03T00:50:08.051Z,102081.72
2023-02-03T00:52:36.747Z,102078.41
2023-02-03T00:55:05.733Z,102084.38
2023-02-03T00:57:34.594Z,102081.63
2023-02-03T01:00:05.047Z,102107.63
2023-02-03T01:02:33.696Z,102102.81
2023-02-03T01:05:02.265Z,102120.19
2023-02-03T01:07:33.770Z,102132.72
2023-02-03T01:10:02.334Z,102135.16
2023-02-03T01:12:31.435Z,102137.28
2023-02-03T01:15:00.349Z,102126.06
2023-02-03T01:17:31.069Z,102140.00
2023-02-03T01:19:59.651Z,102146.19
2023-02-03T01:22:30.097Z,102143.16
2023-02-03T01:24:58.731Z,102153.41
2023-02-03T01:27:27.393Z,102144.50
2023-02-03T01:29:55.993Z,102144.75
2023-02-03T01:32:24.589Z,102142.59
2023-02-03T01:34:54.538Z,102141.03
2023-02-03T01:37:23.135Z,102145.22
2023-02-03T01:39:51.738Z,102147.63
2023-02-03T01:42:20.329Z,102149.34
2023-02-03T01:44:51.372Z,102146.38
2023-02-03T01:47:25.841Z,102148.09
2023-02-03T01:50:03.995Z,102138.00
2023-02-03T01:52:33.909Z,102128.44
2023-02-03T01:55:06.677Z,102131.09
2023-02-03T01:57:39.432Z,102136.53
2023-02-03T02:00:10.039Z,102142.69
2023-02-03T02:02:38.873Z,102155.59
2023-02-03T02:05:15.592Z,102151.22
2023-02-03T02:07:45.780Z,102139.34
2023-02-03T02:10:14.640Z,102144.59
2023-02-03T02:12:43.416Z,102127.50
2023-02-03T02:15:12.504Z,102131.66
2023-02-03T02:18:08.432Z,102125.94
2023-02-03T02:21:00.874Z,102113.81
2023-02-03T02:24:01.101Z,102117.00
2023-02-03T02:26:54.073Z,102105.53
2023-02-03T02:30:05.281Z,102105.84
2023-02-03T02:33:02.483Z,102085.69
2023-02-03T02:35:44.601Z,102090.53
2023-02-03T02:38:22.137Z,102089.22
2023-02-03T02:40:58.103Z,102095.59
2023-02-03T02:43:35.057Z,102090.53
2023-02-03T02:46:08.550Z,102087.13
2023-02-03T02:48:43.755Z,102096.25
2023-02-03T02:51:15.555Z,102094.22
2023-02-03T02:53:49.705Z,102087.03
2023-02-03T02:56:20.154Z,102074.31
2023-02-03T02:58:51.738Z,102074.81
2023-02-03T03:01:20.579Z,102056.28
2023-02-03T03:03:50.601Z,102065.59
2023-02-03T03:06:23.543Z,102067.19
2023-02-03T03:08:57.198Z,102074.53
2023-02-03T03:11:28.902Z,102075.53
2023-02-03T03:13:58.157Z,102086.84
2023-02-03T03:16:30.840Z,102097.97
2023-02-03T03:19:04.161Z,102108.59
2023-02-03T03:21:37.316Z,102099.78
2023-02-03T03:24:10.710Z,102086.50
2023-02-03T03:26:48.627Z,102094.81
2023-02-03T03:29:22.583Z,102080.13
2023-02-03T03:31:51.456Z,102074.72
2023-02-03T03:34:21.860Z,102083.72
2023-02-03T03:36:57.042Z,102079.44
2023-02-03T03:39:33.301Z,102085.31
2023-02-03T03:42:08.944Z,102101.56
2023-02-03T03:44:43.567Z,102098.34
2023-02-03T03:47:18.423Z,102105.84
2023-02-03T03:49:50.897Z,102085.13
2023-02-03T03:52:24.389Z,102087.88
2023-02-03T03:54:55.762Z,102081.91
2023-02-03T03:57:27.931Z,102094.13
2023-02-03T03:59:56.819Z,102081.72
2023-02-03T04:02:26.309Z,102079.34
2023-02-03T04:04:59.582Z,102086.09
2023-02-03T04:07:39.882Z,102088.75
2023-02-03T04:10:16.459Z,102088.75
2023-02-03T04:12:45.050Z,102094.03
2023-02-03T04:15:13.621Z,102107.75
2023-02-03T04:17:42.242Z,102082.47
2023-02-03T04:20:13.781Z,102081.72
2023-02-03T04:22:42.391Z,102078.03
2023-02-03T04:25:11.268Z,102081.16
2023-02-03T04:27:40.011Z,102092.72
2023-02-03T04:30:10.427Z,102092.06
2023-02-03T04:32:39.047Z,102100.41
2023-02-03T04:35:09.207Z,102091.53
2023-02-03T04:37:39.155Z,102091.50
2023-02-03T04:40:09.341Z,102091.50
2023-02-03T04:42:39.033Z,102081.06
2023-02-03T04:45:10.106Z,102077.03
2023-02-03T04:47:39.453Z,102074.13
2023-02-03T04:50:08.791Z,102083.94
2023-02-03T04:52:38.827Z,102077.75
2023-02-03T04:55:08.359Z,102067.56
2023-02-03T04:57:36.955Z,102062.38
2023-02-03T05:00:06.315Z,102074.31
2023-02-03T05:02:34.915Z,102058.59
2023-02-03T05:05:03.478Z,102046.75
2023-02-03T05:07:32.037Z,102045.56
2023-02-03T05:10:01.986Z,102049.94
2023-02-03T05:12:30.610Z,102053.63
2023-02-03T05:14:59.156Z,102055.31
2023-02-03T05:17:27.824Z,102052.41
2023-02-03T05:19:56.413Z,102040.44
2023-02-03T05:22:25.011Z,102042.72
2023-02-03T05:24:53.584Z,102031.88
2023-02-03T05:27:23.622Z,102047.56
2023-02-03T05:29:52.175Z,102052.31
2023-02-03T05:32:20.759Z,102041.06
2023-02-03T05:34:49.313Z,102043.63
2023-02-03T05:37:17.985Z,102062.25
2023-02-03T05:39:46.503Z,102061.28
2023-02-03T05:42:14.077Z,102049.63
2023-02-03T05:44:43.969Z,102067.47
2023-02-03T05:47:12.557Z,102060.31
2023-02-03T05:49:41.105Z,102055.63
2023-02-03T05:52:09.676Z,102058.41
2023-02-03T05:54:38.257Z,102067.84
2023-02-03T05:57:06.859Z,102055.22
2023-02-03T05:59:35.393Z,102056.66
2023-02-03T06:02:05.362Z,102047.84
2023-02-03T06:04:33.942Z,102057.81
2023-02-03T06:07:02.516Z,102056.75
2023-02-03T06:09:31.064Z,102054.91
2023-02-03T06:11:59.642Z,102051.78
2023-02-03T06:14:28.727Z,102070.16
2023-02-03T06:16:57.403Z,102055.56
2023-02-03T06:19:27.401Z,102062.84
2023-02-03T06:21:55.925Z,102065.69
2023-02-03T06:24:24.497Z,102075.38
2023-02-03T06:26:53.047Z,102074.00
2023-02-03T06:29:21.706Z,102050.25
2023-02-03T06:31:50.422Z,102051.16
2023-02-03T06:34:19.125Z,102064.44
2023-02-03T06:36:49.477Z,102077.50
2023-02-03T06:39:18.241Z,102075.56
2023-02-03T06:41:46.756Z,102074.16
2023-02-03T06:44:15.321Z,102077.72
2023-02-03T06:46:43.887Z,102066.03
2023-02-03T06:49:12.612Z,102072.41
2023-02-03T06:51:41.217Z,102079.59
2023-02-03T06:54:12.892Z,102057.06
2023-02-03T06:56:41.702Z,102054.22
2023-02-03T06:59:10.315Z,102068.00
2023-02-03T07:01:38.985Z,102069.41
2023-02-03T07:04:07.701Z,102076.75
2023-02-03T07:06:36.241Z,102070.03
2023-02-03T07:09:06.569Z,102062.94
2023-02-03T07:11:36.478Z,102073.56
2023-02-03T07:14:05.065Z,102078.84
2023-02-03T07:16:34.337Z,102073.34
2023-02-03T07:19:02.940Z,102074.59
2023-02-03T07:21:31.682Z,102065.81
2023-02-03T07:24:00.290Z,102074.53
2023-02-03T07:26:28.893Z,102063.44
2023-02-03T07:29:00.824Z,102064.75
2023-02-03T07:31:29.639Z,102072.78
2023-02-03T07:33:58.476Z,102070.78
2023-02-03T07:36:28.125Z,102068.03
2023-02-03T07:38:57.026Z,102053.44
2023-02-03T07:41:25.656Z,102056.19
2023-02-03T07:43:54.347Z,102058.16
2023-02-03T07:46:24.515Z,102064.81
2023-02-03T07:48:53.276Z,102070.38
2023-02-03T07:51:21.879Z,102078.47
2023-02-03T07:53:50.529Z,102075.84
2023-02-03T07:56:19.088Z,102081.25
2023-02-03T07:58:47.670Z,102078.13
2023-02-03T08:01:17.869Z,102077.06
2023-02-03T08:03:47.798Z,102084.06
2023-02-03T08:06:16.406Z,102090.13
2023-02-03T08:08:45.059Z,102096.88
2023-02-03T08:11:13.629Z,102106.53
2023-02-03T08:13:42.208Z,102103.56
2023-02-03T08:16:10.791Z,102099.72
2023-02-03T08:18:39.426Z,102104.25
2023-02-03T08:21:09.351Z,102104.84
2023-02-03T08:23:38.015Z,102099.28
2023-02-03T08:26:06.814Z,102105.13
2023-02-03T08:28:35.560Z,102094.59
2023-02-03T08:31:10.114Z,102117.78
2023-02-03T08:33:38.922Z,102116.16
2023-02-03T08:36:11.279Z,102118.53
2023-02-03T08:38:40.533Z,102113.16
2023-02-03T08:41:12.771Z,102115.72
2023-02-03T08:43:41.769Z,102111.78
2023-02-03T08:46:12.387Z,102110.13
2023-02-03T08:48:41.244Z,102107.34
2023-02-03T08:51:15.418Z,102105.47
2023-02-03T08:53:44.200Z,102110.75
2023-02-03T08:56:13.620Z,102114.59
2023-02-03T08:58:42.458Z,102117.03
2023-02-03T09:01:12.519Z,102112.09
2023-02-03T09:03:42.134Z,102121.78
2023-02-03T09:06:16.580Z,102125.13
2023-02-03T09:08:46.238Z,102113.66
2023-02-03T09:11:17.124Z,102101.69
2023-02-03T09:13:46.532Z,102113.50
2023-02-03T09:16:17.764Z,102123.56
2023-02-03T09:18:46.932Z,102128.72
2023-02-03T09:21:31.897Z,102131.84
2023-02-03T09:24:05.385Z,102127.00
2023-02-03T09:26:33.947Z,102133.41
2023-02-03T09:29:02.550Z,102136.09
2023-02-03T09:31:31.281Z,102136.16
2023-02-03T09:34:01.039Z,102134.34
2023-02-03T09:36:30.952Z,102143.75
2023-02-03T09:38:59.811Z,102142.94
2023-02-03T09:42:00.948Z,102139.91
2023-02-03T09:44:37.079Z,102129.44
2023-02-03T09:47:11.847Z,102136.97
2023-02-03T09:49:42.938Z,102131.00
2023-02-03T09:52:18.770Z,102142.22
2023-02-03T09:54:54.070Z,102143.81
2023-02-03T09:57:25.964Z,102135.44
2023-02-03T09:59:57.394Z,102134.38
2023-02-03T10:02:55.068Z,102152.34
2023-02-03T10:05:32.261Z,102135.06
2023-02-03T10:08:11.962Z,102134.19
2023-02-03T10:10:46.613Z,102120.19
2023-02-03T10:13:31.394Z,102136.56
2023-02-03T10:16:15.900Z,102135.19
2023-02-03T10:18:51.536Z,102142.09
2023-02-03T10:21:26.821Z,102138.78
2023-02-03T10:23:58.411Z,102142.53
2023-02-03T10:26:29.355Z,102136.53
2023-02-03T10:28:59.325Z,102126.75
2023-02-03T10:31:33.323Z,102136.31
2023-02-03T10:34:10.302Z,102144.78
2023-02-03T10:36:50.196Z,102148.06
2023-02-03T10:39:29.033Z,102153.88
2023-02-03T10:41:57.943Z,102149.22
2023-02-03T10:44:35.178Z,102139.28
2023-02-03T10:47:03.758Z,102149.00
2023-02-03T10:49:32.318Z,102140.31
2023-02-03T10:52:04.972Z,102143.09
2023-02-03T10:54:38.254Z,102140.91
2023-02-03T10:57:12.670Z,102139.00
2023-02-03T10:59:44.839Z,102125.41
2023-02-03T11:02:25.840Z,102127.53
2023-02-03T11:05:10.122Z,102121.38
2023-02-03T11:07:38.874Z,102128.75
2023-02-03T11:10:34.360Z,102135.78
2023-02-03T11:13:23.282Z,102132.22
2023-02-03T11:15:57.604Z,102143.31
2023-02-03T11:18:54.377Z,102143.91
2023-02-03T11:21:25.838Z,102153.69
2023-02-03T11:23:58.603Z,102153.50
2023-02-03T11:26:32.332Z,102155.78
2023-02-03T11:29:03.348Z,102149.38
2023-02-03T11:31:35.237Z,102145.94
2023-02-03T11:34:06.716Z,102168.41
2023-02-03T11:36:36.877Z,102164.88
2023-02-03T11:39:35.478Z,102164.06
2023-02-03T11:42:22.782Z,102170.00
2023-02-03T11:44:51.498Z,102161.00
2023-02-03T11:47:23.462Z,102163.63
2023-02-03T11:50:11.040Z,102156.31
2023-02-03T11:52:54.863Z,102164.56
2023-02-03T11:55:34.775Z,102164.56
2023-02-03T11:58:39.242Z,102159.06
2023-02-03T12:01:17.012Z,102157.25
2023-02-03T12:04:22.835Z,102154.31
2023-02-03T12:07:21.382Z,102165.41
2023-02-03T12:10:01.103Z,102164.97
2023-02-03T12:12:51.863Z,102152.59
2023-02-03T12:15:50.408Z,102166.09
2023-02-03T12:18:34.792Z,102165.19
2023-02-03T12:21:30.320Z,102157.53
2023-02-03T12:24:08.829Z,102173.47
2023-02-03T12:26:48.115Z,102165.47
2023-02-03T12:29:21.584Z,102177.19
2023-02-03T12:32:01.530Z,102176.53
2023-02-03T12:34:35.372Z,102178.31
2023-02-03T12:37:09.416Z,102170.28
2023-02-03T12:39:44.620Z,102172.19
2023-02-03T12:42:19.787Z,102169.28
2023-02-03T12:44:53.695Z,102172.31
2023-02-03T12:47:31.511Z,102163.66
2023-02-03T12:50:04.183Z,102170.50
2023-02-03T12:52:37.693Z,102168.69
2023-02-03T12:55:19.685Z,102168.84
2023-02-03T12:57:57.677Z,102171.78
2023-02-03T13:00:38.063Z,102174.19
2023-02-03T13:03:17.981Z,102159.50
2023-02-03T13:05:53.309Z,102169.88
2023-02-03T13:08:30.470Z,102164.22
2023-02-03T13:11:10.632Z,102165.56
2023-02-03T13:13:46.995Z,102162.16
2023-02-03T13:16:20.016Z,102166.59
2023-02-03T13:18:55.377Z,102168.75
2023-02-03T13:21:24.208Z,102175.25
2023-02-03T13:23:53.037Z,102182.81
2023-02-03T13:26:49.651Z,102167.56
2023-02-03T13:29:34.118Z,102167.16
2023-02-03T13:32:17.142Z,102152.34
2023-02-03T13:35:24.540Z,102153.78
2023-02-03T13:38:20.933Z,102158.19
2023-02-03T13:40:57.497Z,102150.78
2023-02-03T13:43:38.675Z,102142.75
2023-02-03T13:46:14.090Z,102137.00
2023-02-03T13:48:46.846Z,102143.88
2023-02-03T13:51:21.086Z,102150.75
2023-02-03T13:53:51.818Z,102163.16
2023-02-03T13:56:23.821Z,102164.16
2023-02-03T13:59:05.528Z,102162.22
2023-02-03T14:01:39.960Z,102174.47
2023-02-03T14:04:10.187Z,102161.72
2023-02-03T14:07:02.833Z,102180.59
2023-02-03T14:09:42.801Z,102163.44
2023-02-03T14:12:39.939Z,102167.63
2023-02-03T14:15:33.521Z,102176.50
2023-02-03T14:18:33.957Z,102165.72
2023-02-03T14:21:17.427Z,102183.00
2023-02-03T14:23:59.342Z,102190.94
2023-02-03T14:26:42.991Z,102201.16
2023-02-03T14:29:26.406Z,102185.78
2023-02-03T14:32:00.668Z,102185.00
2023-02-03T14:34:40.659Z,102195.47
2023-02-03T14:37:19.722Z,102207.47
2023-02-03T14:40:22.595Z,102220.63
2023-02-03T14:43:26.221Z,102219.31
2023-02-03T14:46:17.273Z,102228.84
2023-02-03T14:48:59.980Z,102240.78
2023-02-03T14:51:46.659Z,102239.66
2023-02-03T14:54:39.329Z,102249.63
2023-02-03T14:57:23.418Z,102240.78
2023-02-03T14:59:57.305Z,102254.13
2023-02-03T15:02:27.610Z,102259.41
2023-02-03T15:05:36.851Z,102267.59
2023-02-03T15:08:06.497Z,102279.41
2023-02-03T15:10:44.692Z,102274.41
2023-02-03T15:13:27.142Z,102271.75
2023-02-03T15:15:58.635Z,102274.72
2023-02-03T15:18:32.904Z,102281.41
2023-02-03T15:21:01.667Z,102282.94
2023-02-03T15:23:32.322Z,102277.66
2023-02-03T15:26:03.181Z,102293.00
2023-02-03T15:28:33.233Z,102285.81
2023-02-03T15:31:13.540Z,102286.78
2023-02-03T15:33:44.329Z,102281.78
2023-02-03T15:36:20.939Z,102289.13
2023-02-03T15:38:56.754Z,102284.19
2023-02-03T15:41:27.216Z,102284.06
2023-02-03T15:44:02.367Z,102296.31
2023-02-03T15:46:37.095Z,102293.66
2023-02-03T15:49:11.657Z,102288.56
2023-02-03T15:51:45.016Z,102305.69
2023-02-03T15:54:19.030Z,102299.94
2023-02-03T15:56:55.576Z,102308.13
2023-02-03T15:59:30.789Z,102303.81
2023-02-03T16:02:00.582Z,102307.53
2023-02-03T16:04:29.354Z,102296.53
2023-02-03T16:06:58.681Z,102314.72
2023-02-03T16:09:32.759Z,102310.38
2023-02-03T16:12:07.076Z,102324.31
2023-02-03T16:14:39.891Z,102329.69
2023-02-03T16:17:21.693Z,102344.63
2023-02-03T16:19:51.452Z,102340.69
2023-02-03T16:22:32.119Z,102348.22
2023-02-03T16:25:15.452Z,102349.75
2023-02-03T16:27:46.487Z,102344.41
2023-02-03T16:30:42.796Z,102343.94
2023-02-03T16:33:34.497Z,102355.22
2023-02-03T16:36:28.773Z,102350.38
2023-02-03T16:39:16.324Z,102355.75
2023-02-03T16:42:02.191Z,102371.03
2023-02-03T16:44:48.481Z,102369.09
2023-02-03T16:47:43.813Z,102373.72
2023-02-03T16:50:38.737Z,102371.47
2023-02-03T16:53:13.123Z,102385.84
2023-02-03T16:55:41.839Z,102382.66
2023-02-03T16:58:12.023Z,102390.75
2023-02-03T17:00:42.040Z,102389.84
2023-02-03T17:03:13.345Z,102403.34
2023-02-03T17:05:43.487Z,102396.09
2023-02-03T17:08:12.192Z,102398.84
2023-02-03T17:10:42.587Z,102403.94
2023-02-03T17:13:11.914Z,102413.09
2023-02-03T17:15:45.799Z,102410.34
2023-02-03T17:18:16.103Z,102411.66
2023-02-03T17:20:45.717Z,102409.63
2023-02-03T17:23:16.198Z,102403.38
2023-02-03T17:25:46.680Z,102404.41
2023-02-03T17:28:15.604Z,102409.63
2023-02-03T17:30:44.575Z,102418.13
2023-02-03T17:33:14.624Z,102414.50
2023-02-03T17:35:44.471Z,102419.78
2023-02-03T17:38:15.053Z,102425.16
2023-02-03T17:54:41.041Z,102456.56
2023-02-03T17:57:09.458Z,102463.25
2023-02-03T17:59:37.901Z,102468.41
2023-02-03T18:02:07.104Z,102463.91
2023-02-03T18:04:37.067Z,102456.78
2023-02-03T18:07:05.662Z,102464.47
2023-02-03T18:09:34.062Z,102460.97
2023-02-03T18:12:02.645Z,102463.69
2023-02-03T18:14:31.287Z,102470.50
2023-02-03T18:16:59.888Z,102468.25
2023-02-03T18:19:28.501Z,102471.16
2023-02-03T18:21:59.915Z,102482.63
2023-02-03T18:24:29.965Z,102483.03
2023-02-03T18:27:00.353Z,102493.97
2023-02-03T18:29:29.253Z,102486.22
2023-02-03T18:31:57.531Z,102493.03
2023-02-03T18:34:25.882Z,102484.94
2023-02-03T18:36:54.159Z,102497.03
2023-02-03T18:39:24.143Z,102496.53
2023-02-03T18:41:52.432Z,102502.75
2023-02-03T18:44:21.121Z,102500.00
2023-02-03T18:46:49.432Z,102508.75
2023-02-03T18:49:17.793Z,102510.47
2023-02-03T18:51:46.067Z,102508.25
2023-02-03T18:54:14.929Z,102509.75
2023-02-03T18:56:44.621Z,102507.94
2023-02-03T18:59:13.452Z,102502.78
2023-02-03T19:01:42.018Z,102509.09
2023-02-03T19:04:11.803Z,102502.97
2023-02-03T19:06:45.631Z,102502.53
2023-02-03T19:09:17.990Z,102502.66
2023-02-03T19:11:47.857Z,102506.41
2023-02-03T19:14:16.529Z,102512.56
2023-02-03T19:16:45.235Z,102508.88
2023-02-03T19:19:14.926Z,102514.91
2023-02-03T19:21:43.244Z,102523.44
2023-02-03T19:24:14.999Z,102518.59
2023-02-03T19:26:43.621Z,102515.69
2023-02-03T19:29:13.404Z,102527.72
2023-02-03T19:31:41.763Z,102525.38
2023-02-03T19:34:10.401Z,102532.28
2023-02-03T19:36:38.952Z,102535.47
2023-02-03T19:39:07.307Z,102544.97
2023-02-03T19:41:36.481Z,102549.53
2023-02-03T19:44:05.799Z,102544.59
2023-02-03T19:46:38.281Z,102549.53
2023-02-03T19:49:11.061Z,102558.81
2023-02-03T19:51:39.425Z,102568.72
2023-02-03T19:54:08.034Z,102569.69
2023-02-03T19:56:36.351Z,102571.59
2023-02-03T19:59:04.692Z,102579.69
2023-02-03T20:01:33.156Z,102578.16
2023-02-03T20:04:02.900Z,102585.84
2023-02-03T20:06:31.649Z,102575.03
2023-02-03T20:09:00.285Z,102593.41
2023-02-03T20:11:29.447Z,102596.19
2023-02-03T20:13:57.745Z,102597.28
2023-02-03T20:16:26.528Z,102598.59
2023-02-03T20:18:56.209Z,102596.78
2023-02-03T20:21:25.900Z,102594.09
2023-02-03T20:23:54.697Z,102591.84
2023-02-03T20:26:23.191Z,102603.13
2023-02-03T20:28:51.772Z,102612.41
2023-02-03T20:31:21.556Z,102602.78
2023-02-03T20:33:50.890Z,102605.72
2023-02-03T20:36:19.473Z,102600.66
2023-02-03T20:38:49.561Z,102604.34
2023-02-03T20:41:19.668Z,102612.81
2023-02-03T20:43:48.625Z,102611.50
2023-02-03T20:46:20.601Z,102607.22
2023-02-03T20:48:49.242Z,102617.22
2023-02-03T20:51:21.063Z,102618.81
2023-02-03T20:53:52.602Z,102619.38
2023-02-03T20:56:22.736Z,102615.56
2023-02-03T20:58:51.298Z,102614.88
2023-02-03T21:01:22.080Z,102624.25
2023-02-03T21:04:08.046Z,102627.16
2023-02-03T21:06:36.871Z,102623.47
2023-02-03T21:09:15.868Z,102628.84
2023-02-03T21:11:44.991Z,102626.72
2023-02-03T21:14:22.140Z,102637.69
2023-02-03T21:16:51.760Z,102637.19
2023-02-03T21:19:29.982Z,102645.47
2023-02-03T21:21:58.844Z,102649.19
2023-02-03T21:24:32.739Z,102657.69
2023-02-03T21:27:02.651Z,102649.19
2023-02-03T21:29:34.283Z,102649.88
2023-02-03T21:32:02.944Z,102642.69
2023-02-03T21:34:33.449Z,102643.09
2023-02-03T21:37:15.891Z,102649.88
2023-02-03T21:39:46.701Z,102654.34
2023-02-03T21:42:46.277Z,102645.88
2023-02-03T21:45:40.033Z,102642.09
2023-02-03T21:48:32.072Z,102659.78
2023-02-03T21:51:04.624Z,102656.88
2023-02-03T21:53:36.137Z,102665.84
2023-02-03T21:56:18.825Z,102655.88
2023-02-03T21:58:50.717Z,102658.03
2023-02-03T22:01:22.993Z,102655.66
2023-02-03T22:03:53.818Z,102654.03
2023-02-03T22:06:28.221Z,102658.81
2023-02-03T22:08:58.963Z,102651.25
2023-02-03T22:11:30.700Z,102662.75
2023-02-03T22:13:59.197Z,102664.19
2023-02-03T22:16:29.097Z,102671.16
2023-02-03T22:18:57.765Z,102670.03
2023-02-03T22:21:26.903Z,102667.00
2023-02-03T22:23:55.476Z,102669.88
2023-02-03T22:26:24.362Z,102687.31
2023-02-03T22:28:54.320Z,102686.25
2023-02-03T22:31:22.915Z,102693.09
2023-02-03T22:33:51.293Z,102692.97
2023-02-03T22:36:19.646Z,102687.56
2023-02-03T22:38:47.936Z,102684.84
2023-02-03T22:41:16.274Z,102697.75
2023-02-03T22:43:45.050Z,102693.78
2023-02-03T22:46:14.798Z,102696.72
2023-02-03T22:48:43.112Z,102714.72
2023-02-03T22:51:11.468Z,102708.34
2023-02-03T22:53:40.143Z,102698.44
2023-02-03T22:56:08.965Z,102703.56
2023-02-03T22:58:37.255Z,102697.53
2023-02-03T23:01:06.127Z,102705.72
2023-02-03T23:03:36.095Z,102722.03
2023-02-03T23:06:04.755Z,102717.78
2023-02-03T23:08:33.468Z,102729.13
2023-02-03T23:11:02.052Z,102731.63
2023-02-03T23:13:30.604Z,102729.59
2023-02-03T23:15:59.223Z,102735.09
2023-02-03T23:18:27.838Z,102732.16
2023-02-03T23:20:57.841Z,102736.28
2023-02-03T23:23:26.264Z,102744.72
2023-02-03T23:25:54.567Z,102748.84
2023-02-03T23:28:22.843Z,102749.59
2023-02-03T23:30:51.202Z,102748.06
2023-02-03T23:33:19.521Z,102741.00
2023-02-03T23:35:50.140Z,102750.88
2023-02-03T23:38:20.417Z,102750.63
2023-02-03T23:40:49.070Z,102751.44
2023-02-03T23:43:17.732Z,102756.31
2023-02-03T23:45:46.431Z,102753.91
2023-02-03T23:48:17.457Z,102770.88
2023-02-03T23:50:46.083Z,102772.59
2023-02-03T23:53:14.637Z,102772.19
2023-02-03T23:55:44.576Z,102784.00
2023-02-03T23:58:13.154Z,102774.41
